Edna, Oklahoma
Current Conditions -  °F | °C
As of 8:55 PM on Friday 19 Dec 2014 (Local Time) from KOKM Reporting Station
Overcast Overcast  
Wind Chill: 39°   Ceiling: 2400
Heat Index: 39°   Visibility: 10mi
Dew Point: 37°   Wind: 0mph
Humidity: 91%   Direction: NA
Pressure: 30.23"   Gusts: NA
Location:  35.7718°N, 96.3174°W
Report Text: KOKM 200255Z AUTO 00000KT 10SM OVC024 04/03 A3023 RMK AO2 T00410027
Loading
Personal Weather Stations






























Interactive Weather Map New forecast layout! Learn more

10-Day Weather Forecast

Advertisements
Track Severe Weather on mobile